sensor_id;sensor_type;location;lat;lon;timestamp;pressure;altitude;pressure_sealevel;temperature;humidity
49943;BME280;36011;53.362;58.948;2022-10-16T00:02:11;97509.94;;;4.95;64.12
49943;BME280;36011;53.362;58.948;2022-10-16T00:05:14;97517.25;;;4.84;64.41
49943;BME280;36011;53.362;58.948;2022-10-16T00:08:15;97513.41;;;4.96;64.04
49943;BME280;36011;53.362;58.948;2022-10-16T00:11:20;97512.63;;;4.92;64.23
49943;BME280;36011;53.362;58.948;2022-10-16T00:14:22;97514.44;;;4.90;64.36
49943;BME280;36011;53.362;58.948;2022-10-16T00:17:23;97519.16;;;4.79;64.37
49943;BME280;36011;53.362;58.948;2022-10-16T00:20:24;97522.81;;;4.72;64.98
49943;BME280;36011;53.362;58.948;2022-10-16T00:23:44;97530.03;;;4.64;64.56
49943;BME280;36011;53.362;58.948;2022-10-16T00:26:49;97532.72;;;4.61;64.91
49943;BME280;36011;53.362;58.948;2022-10-16T00:29:51;97530.31;;;4.55;64.84
49943;BME280;36011;53.362;58.948;2022-10-16T00:32:53;97531.31;;;4.50;65.04
49943;BME280;36011;53.362;58.948;2022-10-16T00:35:58;97532.38;;;4.43;65.16
49943;BME280;36011;53.362;58.948;2022-10-16T00:39:02;97530.69;;;4.42;65.38
49943;BME280;36011;53.362;58.948;2022-10-16T00:42:19;97528.97;;;4.41;65.08
49943;BME280;36011;53.362;58.948;2022-10-16T00:45:21;97528.09;;;4.42;65.13
49943;BME280;36011;53.362;58.948;2022-10-16T00:48:25;97526.28;;;4.44;65.30
49943;BME280;36011;53.362;58.948;2022-10-16T00:51:37;97524.44;;;4.48;65.06
49943;BME280;36011;53.362;58.948;2022-10-16T00:54:39;97520.94;;;4.49;64.82
49943;BME280;36011;53.362;58.948;2022-10-16T00:57:41;97533.25;;;4.44;64.86
49943;BME280;36011;53.362;58.948;2022-10-16T01:00:50;97527.28;;;4.40;65.14
49943;BME280;36011;53.362;58.948;2022-10-16T01:03:51;97532.50;;;4.40;65.06
49943;BME280;36011;53.362;58.948;2022-10-16T01:13:48;97538.31;;;4.48;65.05
49943;BME280;36011;53.362;58.948;2022-10-16T01:16:58;97534.88;;;4.48;65.08
49943;BME280;36011;53.362;58.948;2022-10-16T01:33:24;97546.06;;;4.52;64.92
49943;BME280;36011;53.362;58.948;2022-10-16T01:36:35;97559.81;;;4.57;65.05
49943;BME280;36011;53.362;58.948;2022-10-16T01:39:45;97555.34;;;4.60;64.67
49943;BME280;36011;53.362;58.948;2022-10-16T01:42:52;97561.41;;;4.61;64.66
49943;BME280;36011;53.362;58.948;2022-10-16T01:45:57;97557.09;;;4.60;64.60
49943;BME280;36011;53.362;58.948;2022-10-16T01:49:01;97556.09;;;4.64;64.42
49943;BME280;36011;53.362;58.948;2022-10-16T01:52:08;97556.19;;;4.61;64.49
49943;BME280;36011;53.362;58.948;2022-10-16T01:55:25;97559.63;;;4.63;64.37
49943;BME280;36011;53.362;58.948;2022-10-16T01:58:28;97561.38;;;4.62;64.21
49943;BME280;36011;53.362;58.948;2022-10-16T02:01:42;97549.66;;;4.47;64.40
49943;BME280;36011;53.362;58.948;2022-10-16T02:04:53;97566.72;;;4.58;64.13
49943;BME280;36011;53.362;58.948;2022-10-16T02:08:02;97568.44;;;4.59;64.21
49943;BME280;36011;53.362;58.948;2022-10-16T02:11:06;97570.22;;;4.57;64.25
49943;BME280;36011;53.362;58.948;2022-10-16T02:14:08;97563.34;;;4.54;64.22
49943;BME280;36011;53.362;58.948;2022-10-16T02:17:16;97570.22;;;4.57;64.27
49943;BME280;36011;53.362;58.948;2022-10-16T02:20:20;97572.78;;;4.58;64.44
49943;BME280;36011;53.362;58.948;2022-10-16T02:30:47;97575.81;;;4.72;63.92
49943;BME280;36011;53.362;58.948;2022-10-16T02:33:55;97579.31;;;4.73;63.72
49943;BME280;36011;53.362;58.948;2022-10-16T02:37:03;97576.50;;;4.79;63.62
49943;BME280;36011;53.362;58.948;2022-10-16T02:40:08;97583.50;;;4.77;63.86
49943;BME280;36011;53.362;58.948;2022-10-16T02:43:13;97589.56;;;4.78;63.78
49943;BME280;36011;53.362;58.948;2022-10-16T02:46:18;97588.72;;;4.77;63.78
49943;BME280;36011;53.362;58.948;2022-10-16T02:49:20;97592.34;;;4.73;63.72
49943;BME280;36011;53.362;58.948;2022-10-16T02:52:23;97591.41;;;4.76;63.65
49943;BME280;36011;53.362;58.948;2022-10-16T02:55:28;97590.50;;;4.75;63.86
49943;BME280;36011;53.362;58.948;2022-10-16T02:58:32;97597.28;;;4.82;63.35
49943;BME280;36011;53.362;58.948;2022-10-16T03:01:36;97600.84;;;4.78;63.69
49943;BME280;36011;53.362;58.948;2022-10-16T03:04:40;97603.56;;;4.75;63.61
49943;BME280;36011;53.362;58.948;2022-10-16T03:07:44;97599.16;;;4.77;63.72
49943;BME280;36011;53.362;58.948;2022-10-16T03:10:47;97597.38;;;4.79;63.54
49943;BME280;36011;53.362;58.948;2022-10-16T03:13:49;97611.91;;;4.86;63.53
49943;BME280;36011;53.362;58.948;2022-10-16T03:16:52;97610.84;;;4.93;63.21
49943;BME280;36011;53.362;58.948;2022-10-16T03:19:57;97615.75;;;5.03;63.13
49943;BME280;36011;53.362;58.948;2022-10-16T03:23:03;97619.09;;;5.08;62.77
49943;BME280;36011;53.362;58.948;2022-10-16T03:26:09;97622.31;;;5.16;62.86
49943;BME280;36011;53.362;58.948;2022-10-16T03:29:11;97617.72;;;5.24;62.81
49943;BME280;36011;53.362;58.948;2022-10-16T03:32:17;97630.47;;;5.33;62.31
49943;BME280;36011;53.362;58.948;2022-10-16T03:35:20;97625.03;;;5.39;62.04
49943;BME280;36011;53.362;58.948;2022-10-16T03:38:26;97636.91;;;5.50;62.17
49943;BME280;36011;53.362;58.948;2022-10-16T03:41:30;97630.44;;;5.61;61.96
49943;BME280;36011;53.362;58.948;2022-10-16T03:44:31;97633.53;;;5.73;61.83
49943;BME280;36011;53.362;58.948;2022-10-16T03:47:36;97635.72;;;5.85;61.82
49943;BME280;36011;53.362;58.948;2022-10-16T03:50:40;97640.50;;;5.99;61.56
49943;BME280;36011;53.362;58.948;2022-10-16T03:53:46;97647.66;;;6.19;60.98
49943;BME280;36011;53.362;58.948;2022-10-16T03:56:50;97648.00;;;6.35;61.05
49943;BME280;36011;53.362;58.948;2022-10-16T03:59:52;97644.00;;;6.48;60.79
49943;BME280;36011;53.362;58.948;2022-10-16T04:02:55;97645.50;;;6.55;60.61
49943;BME280;36011;53.362;58.948;2022-10-16T04:05:59;97653.81;;;6.66;60.38
49943;BME280;36011;53.362;58.948;2022-10-16T04:09:01;97646.53;;;6.74;60.27
49943;BME280;36011;53.362;58.948;2022-10-16T04:12:02;97651.31;;;6.87;60.06
49943;BME280;36011;53.362;58.948;2022-10-16T04:15:04;97659.25;;;7.07;59.47
49943;BME280;36011;53.362;58.948;2022-10-16T04:18:06;97661.88;;;7.29;59.09
49943;BME280;36011;53.362;58.948;2022-10-16T04:21:08;97660.25;;;7.49;58.65
49943;BME280;36011;53.362;58.948;2022-10-16T04:24:09;97662.75;;;7.74;58.16
49943;BME280;36011;53.362;58.948;2022-10-16T04:27:15;97663.28;;;8.02;56.85
49943;BME280;36011;53.362;58.948;2022-10-16T04:30:21;97660.75;;;8.21;56.48
49943;BME280;36011;53.362;58.948;2022-10-16T04:33:26;97664.91;;;8.47;55.86
49943;BME280;36011;53.362;58.948;2022-10-16T04:36:32;97669.84;;;8.74;54.88
49943;BME280;36011;53.362;58.948;2022-10-16T04:39:33;97671.56;;;8.94;54.62
49943;BME280;36011;53.362;58.948;2022-10-16T04:42:37;97682.13;;;9.11;53.29
49943;BME280;36011;53.362;58.948;2022-10-16T04:45:38;97694.91;;;9.19;53.09
49943;BME280;36011;53.362;58.948;2022-10-16T04:48:40;97676.94;;;8.91;52.81
49943;BME280;36011;53.362;58.948;2022-10-16T04:51:43;97683.19;;;8.88;52.88
49943;BME280;36011;53.362;58.948;2022-10-16T04:54:45;97682.47;;;8.85;52.82
49943;BME280;36011;53.362;58.948;2022-10-16T04:57:50;97677.53;;;8.97;52.55
49943;BME280;36011;53.362;58.948;2022-10-16T05:00:51;97676.97;;;9.10;52.14
49943;BME280;36011;53.362;58.948;2022-10-16T05:03:53;97680.81;;;9.21;51.70
49943;BME280;36011;53.362;58.948;2022-10-16T05:06:56;97691.59;;;9.34;51.09
49943;BME280;36011;53.362;58.948;2022-10-16T05:10:00;97688.69;;;9.40;50.67
49943;BME280;36011;53.362;58.948;2022-10-16T05:13:04;97681.28;;;9.49;50.45
49943;BME280;36011;53.362;58.948;2022-10-16T05:16:06;97689.13;;;9.67;49.97
49943;BME280;36011;53.362;58.948;2022-10-16T05:19:10;97692.94;;;9.79;49.15
49943;BME280;36011;53.362;58.948;2022-10-16T05:22:14;97695.00;;;10.09;48.08
49943;BME280;36011;53.362;58.948;2022-10-16T05:25:16;97699.31;;;10.79;46.77
49943;BME280;36011;53.362;58.948;2022-10-16T05:28:17;97692.06;;;11.80;44.80
49943;BME280;36011;53.362;58.948;2022-10-16T05:31:22;97698.59;;;13.65;41.57
49943;BME280;36011;53.362;58.948;2022-10-16T05:34:31;97704.44;;;15.15;38.27
49943;BME280;36011;53.362;58.948;2022-10-16T05:37:32;97705.50;;;15.62;36.66
49943;BME280;36011;53.362;58.948;2022-10-16T05:41:11;97707.00;;;16.74;35.77
49943;BME280;36011;53.362;58.948;2022-10-16T05:44:16;97711.06;;;20.29;29.71
49943;BME280;36011;53.362;58.948;2022-10-16T05:47:20;97713.69;;;23.85;26.23
49943;BME280;36011;53.362;58.948;2022-10-16T05:50:24;97709.13;;;26.22;22.81
49943;BME280;36011;53.362;58.948;2022-10-16T05:53:29;97706.19;;;27.38;20.71
49943;BME280;36011;53.362;58.948;2022-10-16T05:56:31;97703.69;;;28.75;19.76
49943;BME280;36011;53.362;58.948;2022-10-16T05:59:34;97711.06;;;29.66;18.36
49943;BME280;36011;53.362;58.948;2022-10-16T06:02:36;97703.56;;;29.68;17.67
49943;BME280;36011;53.362;58.948;2022-10-16T06:05:39;97713.50;;;29.61;17.24
49943;BME280;36011;53.362;58.948;2022-10-16T06:08:49;97713.94;;;30.67;16.05
49943;BME280;36011;53.362;58.948;2022-10-16T06:11:53;97711.22;;;31.73;15.27
49943;BME280;36011;53.362;58.948;2022-10-16T06:14:55;97705.63;;;32.58;14.61
49943;BME280;36011;53.362;58.948;2022-10-16T06:17:56;97702.19;;;32.70;14.42
49943;BME280;36011;53.362;58.948;2022-10-16T06:21:10;97717.66;;;33.07;14.35
49943;BME280;36011;53.362;58.948;2022-10-16T06:24:14;97703.25;;;33.44;13.77
49943;BME280;36011;53.362;58.948;2022-10-16T06:27:18;97721.56;;;33.62;13.11
49943;BME280;36011;53.362;58.948;2022-10-16T06:30:22;97713.78;;;33.40;13.52
49943;BME280;36011;53.362;58.948;2022-10-16T06:33:24;97702.41;;;33.25;13.00
49943;BME280;36011;53.362;58.948;2022-10-16T06:36:31;97702.00;;;32.96;13.33
49943;BME280;36011;53.362;58.948;2022-10-16T06:39:32;97698.88;;;32.93;13.03
49943;BME280;36011;53.362;58.948;2022-10-16T06:42:35;97703.75;;;33.59;12.77
49943;BME280;36011;53.362;58.948;2022-10-16T06:45:39;97705.06;;;34.12;12.56
49943;BME280;36011;53.362;58.948;2022-10-16T06:48:41;97705.84;;;34.31;12.40
49943;BME280;36011;53.362;58.948;2022-10-16T06:51:42;97695.56;;;34.63;12.38
49943;BME280;36011;53.362;58.948;2022-10-16T06:54:43;97704.94;;;35.09;11.95
49943;BME280;36011;53.362;58.948;2022-10-16T06:57:51;97705.41;;;35.29;11.79
49943;BME280;36011;53.362;58.948;2022-10-16T07:00:58;97699.59;;;35.38;11.65
49943;BME280;36011;53.362;58.948;2022-10-16T07:04:03;97703.75;;;35.28;11.65
49943;BME280;36011;53.362;58.948;2022-10-16T07:07:10;97694.22;;;34.35;12.02
49943;BME280;36011;53.362;58.948;2022-10-16T07:10:14;97703.53;;;34.16;12.15
49943;BME280;36011;53.362;58.948;2022-10-16T07:13:15;97700.06;;;33.72;12.27
49943;BME280;36011;53.362;58.948;2022-10-16T07:16:21;97697.03;;;33.80;12.25
49943;BME280;36011;53.362;58.948;2022-10-16T07:19:25;97708.41;;;34.74;11.88
49943;BME280;36011;53.362;58.948;2022-10-16T07:22:31;97704.09;;;35.44;11.56
49943;BME280;36011;53.362;58.948;2022-10-16T07:25:35;97711.88;;;36.51;10.70
49943;BME280;36011;53.362;58.948;2022-10-16T07:28:40;97698.22;;;36.39;10.55
49943;BME280;36011;53.362;58.948;2022-10-16T07:31:46;97709.25;;;36.56;10.85
49943;BME280;36011;53.362;58.948;2022-10-16T07:34:53;97708.88;;;35.37;11.28
49943;BME280;36011;53.362;58.948;2022-10-16T07:37:56;97700.63;;;36.36;10.92
49943;BME280;36011;53.362;58.948;2022-10-16T07:40:59;97706.50;;;37.52;10.22
49943;BME280;36011;53.362;58.948;2022-10-16T07:44:01;97711.41;;;38.33;9.86
49943;BME280;36011;53.362;58.948;2022-10-16T07:47:03;97715.81;;;36.27;10.55
49943;BME280;36011;53.362;58.948;2022-10-16T07:50:07;97701.50;;;36.25;10.76
49943;BME280;36011;53.362;58.948;2022-10-16T07:53:12;97697.56;;;38.01;10.14
49943;BME280;36011;53.362;58.948;2022-10-16T07:56:14;97706.03;;;40.30;8.67
49943;BME280;36011;53.362;58.948;2022-10-16T07:59:16;97700.31;;;41.75;8.20
49943;BME280;36011;53.362;58.948;2022-10-16T08:02:17;97704.81;;;42.41;7.80
49943;BME280;36011;53.362;58.948;2022-10-16T08:05:19;97689.53;;;37.22;9.86
49943;BME280;36011;53.362;58.948;2022-10-16T08:08:24;97688.19;;;36.91;9.80
49943;BME280;36011;53.362;58.948;2022-10-16T08:11:25;97689.69;;;38.10;9.15
49943;BME280;36011;53.362;58.948;2022-10-16T08:14:29;97691.22;;;38.45;9.01
49943;BME280;36011;53.362;58.948;2022-10-16T08:17:31;97680.22;;;39.36;8.60
49943;BME280;36011;53.362;58.948;2022-10-16T08:20:37;97684.69;;;39.15;8.80
49943;BME280;36011;53.362;58.948;2022-10-16T08:23:41;97689.84;;;38.74;8.74
49943;BME280;36011;53.362;58.948;2022-10-16T08:26:43;97677.56;;;38.33;8.80
49943;BME280;36011;53.362;58.948;2022-10-16T08:29:44;97682.47;;;38.53;8.86
49943;BME280;36011;53.362;58.948;2022-10-16T08:32:46;97677.16;;;37.75;9.27
49943;BME280;36011;53.362;58.948;2022-10-16T08:35:53;97679.19;;;36.61;9.81
49943;BME280;36011;53.362;58.948;2022-10-16T08:38:57;97672.06;;;36.49;9.40
49943;BME280;36011;53.362;58.948;2022-10-16T08:51:36;97666.72;;;36.71;9.79
49943;BME280;36011;53.362;58.948;2022-10-16T08:54:42;97669.16;;;36.38;10.28
49943;BME280;36011;53.362;58.948;2022-10-16T08:57:44;97661.22;;;36.25;10.20
49943;BME280;36011;53.362;58.948;2022-10-16T09:01:10;97659.63;;;36.12;10.22
49943;BME280;36011;53.362;58.948;2022-10-16T09:21:10;97650.72;;;35.06;10.72
49943;BME280;36011;53.362;58.948;2022-10-16T09:24:18;97658.50;;;34.37;10.89
49943;BME280;36011;53.362;58.948;2022-10-16T09:27:25;97650.56;;;33.25;11.58
49943;BME280;36011;53.362;58.948;2022-10-16T09:30:29;97660.25;;;32.71;12.17
49943;BME280;36011;53.362;58.948;2022-10-16T09:33:37;97651.19;;;32.13;12.53
49943;BME280;36011;53.362;58.948;2022-10-16T09:36:43;97654.69;;;32.59;12.36
49943;BME280;36011;53.362;58.948;2022-10-16T09:39:52;97654.91;;;33.33;11.72
49943;BME280;36011;53.362;58.948;2022-10-16T09:49:29;97660.34;;;31.67;12.63
49943;BME280;36011;53.362;58.948;2022-10-16T09:52:37;97662.06;;;32.52;12.13
49943;BME280;36011;53.362;58.948;2022-10-16T09:55:48;97667.00;;;32.68;12.02
49943;BME280;36011;53.362;58.948;2022-10-16T09:58:58;97669.63;;;32.11;12.72
49943;BME280;36011;53.362;58.948;2022-10-16T10:02:08;97672.16;;;30.55;13.63
49943;BME280;36011;53.362;58.948;2022-10-16T10:05:22;97669.00;;;26.87;16.94
49943;BME280;36011;53.362;58.948;2022-10-16T10:08:26;97660.25;;;23.40;19.78
49943;BME280;36011;53.362;58.948;2022-10-16T10:14:49;97672.00;;;20.57;23.44
49943;BME280;36011;53.362;58.948;2022-10-16T10:17:59;97672.44;;;22.56;21.47
49943;BME280;36011;53.362;58.948;2022-10-16T10:21:16;97683.09;;;24.45;19.85
49943;BME280;36011;53.362;58.948;2022-10-16T10:24:21;97685.19;;;25.87;18.37
49943;BME280;36011;53.362;58.948;2022-10-16T10:51:42;97702.91;;;25.09;19.80
49943;BME280;36011;53.362;58.948;2022-10-16T10:58:49;97699.06;;;23.80;20.98
49943;BME280;36011;53.362;58.948;2022-10-16T11:02:16;97704.78;;;22.18;22.67
49943;BME280;36011;53.362;58.948;2022-10-16T11:08:45;97700.28;;;21.91;23.18
49943;BME280;36011;53.362;58.948;2022-10-16T11:11:56;97696.25;;;22.05;22.89
49943;BME280;36011;53.362;58.948;2022-10-16T11:15:15;97694.00;;;22.01;22.93
49943;BME280;36011;53.362;58.948;2022-10-16T11:18:26;97697.25;;;19.95;25.28
49943;BME280;36011;53.362;58.948;2022-10-16T11:21:39;97700.53;;;17.68;28.24
49943;BME280;36011;53.362;58.948;2022-10-16T11:25:04;97710.25;;;17.13;29.39
49943;BME280;36011;53.362;58.948;2022-10-16T11:28:10;97713.84;;;17.34;28.98
49943;BME280;36011;53.362;58.948;2022-10-16T11:31:24;97708.81;;;16.38;30.71
49943;BME280;36011;53.362;58.948;2022-10-16T11:34:40;97705.28;;;15.65;31.75
49943;BME280;36011;53.362;58.948;2022-10-16T11:37:52;97713.69;;;15.96;31.35
49943;BME280;36011;53.362;58.948;2022-10-16T11:41:03;97716.63;;;15.18;32.29
49943;BME280;36011;53.362;58.948;2022-10-16T11:45:17;97715.25;;;15.12;32.71
49943;BME280;36011;53.362;58.948;2022-10-16T11:48:08;97727.16;;;15.56;31.96
49943;BME280;36011;53.362;58.948;2022-10-16T11:54:37;97717.88;;;15.87;31.42
49943;BME280;36011;53.362;58.948;2022-10-16T11:57:50;97718.78;;;15.99;31.52
49943;BME280;36011;53.362;58.948;2022-10-16T12:04:19;97732.81;;;16.60;30.21
49943;BME280;36011;53.362;58.948;2022-10-16T12:07:22;97734.94;;;16.79;29.60
49943;BME280;36011;53.362;58.948;2022-10-16T12:10:28;97734.63;;;15.25;32.02
49943;BME280;36011;53.362;58.948;2022-10-16T12:13:38;97725.47;;;14.13;34.29
49943;BME280;36011;53.362;58.948;2022-10-16T12:16:57;97735.91;;;14.02;34.41
49943;BME280;36011;53.362;58.948;2022-10-16T12:23:22;97740.25;;;13.47;35.23
49943;BME280;36011;53.362;58.948;2022-10-16T12:26:29;97737.53;;;13.48;35.23
49943;BME280;36011;53.362;58.948;2022-10-16T12:29:42;97741.50;;;13.41;35.23
49943;BME280;36011;53.362;58.948;2022-10-16T12:32:56;97746.72;;;12.84;36.10
49943;BME280;36011;53.362;58.948;2022-10-16T12:36:04;97753.59;;;12.12;37.75
49943;BME280;36011;53.362;58.948;2022-10-16T12:39:21;97754.44;;;11.81;38.29
49943;BME280;36011;53.362;58.948;2022-10-16T12:45:30;97755.03;;;11.05;39.80
49943;BME280;36011;53.362;58.948;2022-10-16T12:48:32;97751.66;;;10.68;40.66
49943;BME280;36011;53.362;58.948;2022-10-16T12:51:37;97761.56;;;10.28;41.72
49943;BME280;36011;53.362;58.948;2022-10-16T12:54:41;97756.41;;;10.08;42.01
49943;BME280;36011;53.362;58.948;2022-10-16T13:11:11;97777.91;;;9.23;44.81
49943;BME280;36011;53.362;58.948;2022-10-16T13:27:45;97789.38;;;8.61;48.00
49943;BME280;36011;53.362;58.948;2022-10-16T13:30:57;97790.22;;;8.41;48.25
49943;BME280;36011;53.362;58.948;2022-10-16T13:34:03;97795.72;;;8.33;48.58
49943;BME280;36011;53.362;58.948;2022-10-16T13:37:17;97804.50;;;8.32;49.09
49943;BME280;36011;53.362;58.948;2022-10-16T13:40:22;97801.59;;;8.18;49.45
49943;BME280;36011;53.362;58.948;2022-10-16T13:43:40;97807.81;;;8.15;49.49
49943;BME280;36011;53.362;58.948;2022-10-16T13:46:58;97805.63;;;8.04;49.93
49943;BME280;36011;53.362;58.948;2022-10-16T13:50:06;97808.00;;;7.88;50.64
49943;BME280;36011;53.362;58.948;2022-10-16T13:53:13;97818.72;;;7.82;51.18
49943;BME280;36011;53.362;58.948;2022-10-16T13:56:26;97813.06;;;7.70;51.08
49943;BME280;36011;53.362;58.948;2022-10-16T13:59:35;97829.38;;;7.54;51.63
49943;BME280;36011;53.362;58.948;2022-10-16T14:02:41;97828.09;;;7.42;51.83
49943;BME280;36011;53.362;58.948;2022-10-16T14:06:04;97840.22;;;7.45;52.13
49943;BME280;36011;53.362;58.948;2022-10-16T14:09:29;97836.22;;;7.35;52.77
49943;BME280;36011;53.362;58.948;2022-10-16T14:12:35;97837.56;;;7.22;53.03
49943;BME280;36011;53.362;58.948;2022-10-16T14:15:40;97841.44;;;7.11;53.33
49943;BME280;36011;53.362;58.948;2022-10-16T14:18:44;97842.53;;;7.04;52.41
49943;BME280;36011;53.362;58.948;2022-10-16T14:21:52;97846.06;;;7.03;53.91
49943;BME280;36011;53.362;58.948;2022-10-16T14:24:58;97851.53;;;6.97;53.99
49943;BME280;36011;53.362;58.948;2022-10-16T14:28:22;97843.69;;;6.97;54.13
49943;BME280;36011;53.362;58.948;2022-10-16T14:31:31;97847.28;;;6.93;54.17
49943;BME280;36011;53.362;58.948;2022-10-16T14:34:40;97848.13;;;6.93;54.27
49943;BME280;36011;53.362;58.948;2022-10-16T14:37:45;97856.88;;;6.94;54.20
49943;BME280;36011;53.362;58.948;2022-10-16T14:40:48;97857.88;;;6.90;53.69
49943;BME280;36011;53.362;58.948;2022-10-16T14:43:55;97848.75;;;6.77;54.61
49943;BME280;36011;53.362;58.948;2022-10-16T14:47:14;97849.09;;;6.66;55.42
49943;BME280;36011;53.362;58.948;2022-10-16T14:50:17;97848.59;;;6.55;55.62
49943;BME280;36011;53.362;58.948;2022-10-16T14:53:23;97850.81;;;6.40;55.95
49943;BME280;36011;53.362;58.948;2022-10-16T14:56:53;97845.63;;;6.39;55.47
49943;BME280;36011;53.362;58.948;2022-10-16T14:59:57;97846.06;;;6.25;56.07
49943;BME280;36011;53.362;58.948;2022-10-16T15:02:59;97848.69;;;6.25;55.58
49943;BME280;36011;53.362;58.948;2022-10-16T15:06:08;97854.06;;;6.20;56.28
49943;BME280;36011;53.362;58.948;2022-10-16T15:09:14;97860.44;;;6.12;56.26
49943;BME280;36011;53.362;58.948;2022-10-16T15:12:18;97855.25;;;6.10;56.23
49943;BME280;36011;53.362;58.948;2022-10-16T15:15:26;97858.06;;;6.04;56.12
49943;BME280;36011;53.362;58.948;2022-10-16T15:18:33;97862.06;;;5.86;57.02
49943;BME280;36011;53.362;58.948;2022-10-16T15:21:35;97864.00;;;5.79;56.43
49943;BME280;36011;53.362;58.948;2022-10-16T15:24:39;97865.78;;;5.77;57.56
49943;BME280;36011;53.362;58.948;2022-10-16T15:27:42;97875.63;;;5.69;57.05
49943;BME280;36011;53.362;58.948;2022-10-16T15:30:48;97858.88;;;5.47;58.22
49943;BME280;36011;53.362;58.948;2022-10-16T15:33:54;97880.47;;;5.52;58.42
49943;BME280;36011;53.362;58.948;2022-10-16T15:37:04;97880.81;;;5.39;59.01
49943;BME280;36011;53.362;58.948;2022-10-16T15:40:09;97887.72;;;5.40;58.80
49943;BME280;36011;53.362;58.948;2022-10-16T15:43:13;97895.66;;;5.37;59.12
49943;BME280;36011;53.362;58.948;2022-10-16T15:46:20;97901.88;;;5.33;59.09
49943;BME280;36011;53.362;58.948;2022-10-16T15:49:26;97894.94;;;5.32;59.58
49943;BME280;36011;53.362;58.948;2022-10-16T15:52:28;97897.00;;;5.21;58.49
49943;BME280;36011;53.362;58.948;2022-10-16T15:55:34;97904.00;;;5.19;59.65
49943;BME280;36011;53.362;58.948;2022-10-16T15:58:40;97905.13;;;5.09;59.91
49943;BME280;36011;53.362;58.948;2022-10-16T16:01:43;97907.97;;;5.00;59.38
49943;BME280;36011;53.362;58.948;2022-10-16T16:04:49;97904.44;;;5.02;60.02
49943;BME280;36011;53.362;58.948;2022-10-16T16:07:51;97903.38;;;5.09;59.54
49943;BME280;36011;53.362;58.948;2022-10-16T16:11:05;97897.34;;;5.07;60.26
49943;BME280;36011;53.362;58.948;2022-10-16T16:14:13;97893.09;;;5.03;60.31
49943;BME280;36011;53.362;58.948;2022-10-16T16:17:15;97892.25;;;5.03;60.56
49943;BME280;36011;53.362;58.948;2022-10-16T16:20:20;97894.13;;;4.98;60.79
49943;BME280;36011;53.362;58.948;2022-10-16T16:23:25;97897.88;;;4.87;61.12
49943;BME280;36011;53.362;58.948;2022-10-16T16:26:30;97915.41;;;4.81;61.37
49943;BME280;36011;53.362;58.948;2022-10-16T16:29:38;97915.63;;;4.73;61.32
49943;BME280;36011;53.362;58.948;2022-10-16T16:32:40;97917.63;;;4.62;61.65
49943;BME280;36011;53.362;58.948;2022-10-16T16:35:44;97917.91;;;4.49;61.88
49943;BME280;36011;53.362;58.948;2022-10-16T16:38:45;97913.00;;;4.37;61.07
49943;BME280;36011;53.362;58.948;2022-10-16T16:41:49;97911.41;;;4.30;61.83
49943;BME280;36011;53.362;58.948;2022-10-16T16:44:54;97917.69;;;4.23;62.02
49943;BME280;36011;53.362;58.948;2022-10-16T16:47:58;97910.16;;;4.11;62.35
49943;BME280;36011;53.362;58.948;2022-10-16T16:51:07;97924.13;;;4.07;62.25
49943;BME280;36011;53.362;58.948;2022-10-16T16:54:12;97925.25;;;3.95;62.39
49943;BME280;36011;53.362;58.948;2022-10-16T16:57:14;97924.69;;;3.79;62.54
49943;BME280;36011;53.362;58.948;2022-10-16T17:00:16;97923.97;;;3.74;62.78
49943;BME280;36011;53.362;58.948;2022-10-16T17:03:17;97921.53;;;3.65;63.10
49943;BME280;36011;53.362;58.948;2022-10-16T17:06:24;97925.03;;;3.64;63.51
49943;BME280;36011;53.362;58.948;2022-10-16T17:09:26;97932.84;;;3.64;63.25
49943;BME280;36011;53.362;58.948;2022-10-16T17:12:31;97937.22;;;3.62;63.26
49943;BME280;36011;53.362;58.948;2022-10-16T17:15:33;97947.69;;;3.58;63.31
49943;BME280;36011;53.362;58.948;2022-10-16T17:18:34;97957.31;;;3.53;63.24
49943;BME280;36011;53.362;58.948;2022-10-16T17:21:36;97960.91;;;3.48;62.98
49943;BME280;36011;53.362;58.948;2022-10-16T17:24:42;97951.59;;;3.36;62.54
49943;BME280;36011;53.362;58.948;2022-10-16T17:27:43;97957.88;;;3.26;63.02
49943;BME280;36011;53.362;58.948;2022-10-16T17:30:45;97957.03;;;3.24;63.32
49943;BME280;36011;53.362;58.948;2022-10-16T17:33:46;97961.44;;;3.19;63.47
49943;BME280;36011;53.362;58.948;2022-10-16T17:36:53;97955.50;;;3.12;63.49
49943;BME280;36011;53.362;58.948;2022-10-16T17:39:54;97959.88;;;3.10;63.48
49943;BME280;36011;53.362;58.948;2022-10-16T17:42:56;97959.81;;;3.13;63.49
49943;BME280;36011;53.362;58.948;2022-10-16T17:46:02;97951.81;;;3.24;63.61
49943;BME280;36011;53.362;58.948;2022-10-16T17:49:03;97955.03;;;3.38;63.33
49943;BME280;36011;53.362;58.948;2022-10-16T17:52:07;97965.22;;;3.49;63.53
49943;BME280;36011;53.362;58.948;2022-10-16T17:55:11;97966.97;;;3.48;63.56
49943;BME280;36011;53.362;58.948;2022-10-16T17:58:15;97965.38;;;3.41;62.83
49943;BME280;36011;53.362;58.948;2022-10-16T18:01:22;97958.53;;;3.37;63.22
49943;BME280;36011;53.362;58.948;2022-10-16T18:04:23;97956.72;;;3.39;63.46
49943;BME280;36011;53.362;58.948;2022-10-16T18:07:27;97968.75;;;3.45;63.29
49943;BME280;36011;53.362;58.948;2022-10-16T18:10:29;97965.25;;;3.47;63.63
49943;BME280;36011;53.362;58.948;2022-10-16T18:13:34;97970.56;;;3.41;63.58
49943;BME280;36011;53.362;58.948;2022-10-16T18:16:39;97968.22;;;3.29;63.85
49943;BME280;36011;53.362;58.948;2022-10-16T18:19:42;97973.50;;;3.23;63.92
49943;BME280;36011;53.362;58.948;2022-10-16T18:22:44;97964.78;;;3.25;63.53
49943;BME280;36011;53.362;58.948;2022-10-16T18:25:51;97979.16;;;3.46;63.17
49943;BME280;36011;53.362;58.948;2022-10-16T18:28:56;97983.31;;;3.55;62.77
49943;BME280;36011;53.362;58.948;2022-10-16T18:32:00;97979.81;;;3.57;62.51
49943;BME280;36011;53.362;58.948;2022-10-16T18:35:05;97964.16;;;3.59;62.72
49943;BME280;36011;53.362;58.948;2022-10-16T18:38:06;97972.72;;;3.66;62.47